createdAt,value
2018-09-13T00:00:36.732Z,7.57
2018-09-13T00:03:05.371Z,7.57
2018-09-13T00:05:33.905Z,8.00
2018-09-13T00:08:02.500Z,8.07
2018-09-13T00:10:31.043Z,7.90
2018-09-13T00:12:59.627Z,7.40
2018-09-13T00:15:28.144Z,7.80
2018-09-13T00:17:56.736Z,7.37
2018-09-13T00:20:25.284Z,7.70
2018-09-13T00:22:53.864Z,7.90
2018-09-13T00:25:22.418Z,7.50
2018-09-13T00:27:50.971Z,7.50
2018-09-13T00:30:19.510Z,7.03
2018-09-13T00:32:48.100Z,7.53
2018-09-13T00:35:16.684Z,7.53
2018-09-13T00:37:45.262Z,7.87
2018-09-13T00:40:13.813Z,8.00
2018-09-13T00:42:42.424Z,6.93
2018-09-13T00:45:10.976Z,7.73
2018-09-13T00:47:43.961Z,7.40
2018-09-13T00:50:13.536Z,7.17
2018-09-13T00:52:42.120Z,7.13
2018-09-13T00:55:10.810Z,7.90
2018-09-13T00:57:39.405Z,7.63
2018-09-13T01:00:08.363Z,7.60
2018-09-13T01:02:37.407Z,7.50
2018-09-13T01:05:06.262Z,7.37
2018-09-13T01:07:34.971Z,8.10
2018-09-13T01:10:03.572Z,8.00
2018-09-13T01:12:32.188Z,8.27
2018-09-13T01:15:00.719Z,8.47
2018-09-13T01:17:29.283Z,8.20
2018-09-13T01:19:57.824Z,8.03
2018-09-13T01:22:26.405Z,7.67
2018-09-13T01:24:55.443Z,7.33
2018-09-13T01:27:25.084Z,7.90
2018-09-13T01:29:53.616Z,8.00
2018-09-13T01:32:22.278Z,8.30
2018-09-13T01:34:50.902Z,8.87
2018-09-13T01:37:19.485Z,8.03
2018-09-13T01:39:48.062Z,8.83
2018-09-13T01:42:16.679Z,8.37
2018-09-13T01:44:45.192Z,9.67
2018-09-13T01:47:13.742Z,8.90
2018-09-13T01:49:42.359Z,9.17
2018-09-13T01:52:10.953Z,8.57
2018-09-13T01:54:39.571Z,8.37
2018-09-13T01:57:08.961Z,8.00
2018-09-13T01:59:37.585Z,8.27
2018-09-13T02:02:06.180Z,7.70
2018-09-13T02:04:34.755Z,8.07
2018-09-13T02:07:03.291Z,7.73
2018-09-13T02:09:31.880Z,8.00
2018-09-13T02:12:00.431Z,8.23
2018-09-13T02:14:28.987Z,8.53
2018-09-13T02:16:57.523Z,8.03
2018-09-13T02:19:26.083Z,7.67
2018-09-13T02:21:54.617Z,7.83
2018-09-13T02:24:23.200Z,8.00
2018-09-13T02:26:51.715Z,8.73
2018-09-13T02:29:20.276Z,8.20
2018-09-13T02:31:48.799Z,8.27
2018-09-13T02:34:17.350Z,8.33
2018-09-13T02:36:45.880Z,8.43
2018-09-13T02:39:14.455Z,8.37
2018-09-13T02:41:43.100Z,8.20
2018-09-13T02:44:12.045Z,8.27
2018-09-13T02:46:40.650Z,8.60
2018-09-13T02:49:09.333Z,8.23
2018-09-13T02:51:37.891Z,8.77
2018-09-13T02:54:06.476Z,8.67
2018-09-13T02:56:35.044Z,8.20
2018-09-13T02:59:03.669Z,8.40
2018-09-13T03:01:32.217Z,8.30
2018-09-13T03:04:00.812Z,7.83
2018-09-13T03:06:29.335Z,7.97
2018-09-13T03:08:57.892Z,8.30
2018-09-13T03:11:26.425Z,8.73
2018-09-13T03:13:54.999Z,8.17
2018-09-13T03:16:23.558Z,8.80
2018-09-13T03:18:52.124Z,9.33
2018-09-13T03:21:20.655Z,9.73
2018-09-13T03:23:49.233Z,9.87
2018-09-13T03:26:17.949Z,9.93
2018-09-13T03:28:46.602Z,10.37
2018-09-13T03:31:15.116Z,9.80
2018-09-13T03:33:43.736Z,10.00
2018-09-13T03:36:12.297Z,10.10
2018-09-13T03:38:40.920Z,9.47
2018-09-13T03:41:09.524Z,9.97
2018-09-13T03:43:38.533Z,8.87
2018-09-13T03:46:07.081Z,9.30
2018-09-13T03:48:35.693Z,9.27
2018-09-13T03:51:04.433Z,9.83
2018-09-13T03:53:32.987Z,10.03
2018-09-13T03:56:01.541Z,9.83
2018-09-13T03:58:30.165Z,10.10
2018-09-13T04:00:58.743Z,9.43
2018-09-13T04:03:27.443Z,9.37
2018-09-13T04:05:56.019Z,9.20
2018-09-13T04:08:24.604Z,9.27
2018-09-13T04:10:53.191Z,9.50
2018-09-13T04:13:21.772Z,9.20
2018-09-13T04:15:50.344Z,9.37
2018-09-13T04:18:18.872Z,8.80
2018-09-13T04:20:47.444Z,8.60
2018-09-13T04:23:16.007Z,9.20
2018-09-13T04:25:44.597Z,8.97
2018-09-13T04:28:13.152Z,9.20
2018-09-13T04:30:41.751Z,8.57
2018-09-13T04:33:10.304Z,8.57
2018-09-13T04:35:39.402Z,8.50
2018-09-13T04:38:08.080Z,9.53
2018-09-13T04:40:36.725Z,8.77
2018-09-13T04:43:05.389Z,9.23
2018-09-13T04:45:33.930Z,8.70
2018-09-13T04:48:02.457Z,9.13
2018-09-13T04:50:31.015Z,8.67
2018-09-13T04:52:59.547Z,8.87
2018-09-13T04:55:28.112Z,8.50
2018-09-13T04:57:56.650Z,8.77
2018-09-13T05:00:25.209Z,8.40
2018-09-13T05:02:53.758Z,8.37
2018-09-13T05:05:22.313Z,8.17
2018-09-13T05:07:50.848Z,7.93
2018-09-13T05:10:19.436Z,8.83
2018-09-13T05:12:48.279Z,8.60
2018-09-13T05:15:16.835Z,8.23
2018-09-13T05:17:45.371Z,7.70
2018-09-13T05:20:14.258Z,7.80
2018-09-13T05:22:43.814Z,8.10
2018-09-13T05:25:12.456Z,7.73
2018-09-13T05:27:41.024Z,7.67
2018-09-13T05:30:09.649Z,8.13
2018-09-13T05:32:38.279Z,7.93
2018-09-13T05:35:08.066Z,7.80
2018-09-13T05:37:36.822Z,7.70
2018-09-13T05:40:05.547Z,7.83
2018-09-13T05:42:34.111Z,7.80
2018-09-13T05:45:02.754Z,7.63
2018-09-13T05:47:31.271Z,7.70
2018-09-13T05:49:59.836Z,8.07
2018-09-13T05:52:28.347Z,7.63
2018-09-13T05:54:56.942Z,7.70
2018-09-13T05:57:25.479Z,14.77
2018-09-13T05:59:54.036Z,16.77
2018-09-13T06:02:22.596Z,14.87
2018-09-13T06:04:51.189Z,9.77
2018-09-13T06:07:19.742Z,8.03
2018-09-13T06:09:48.247Z,9.33
2018-09-13T06:12:16.796Z,8.40
2018-09-13T06:14:45.296Z,7.83
2018-09-13T06:17:13.914Z,8.30
2018-09-13T06:19:42.461Z,8.50
2018-09-13T06:22:10.999Z,8.53
2018-09-13T06:24:39.560Z,7.90
2018-09-13T06:27:08.156Z,8.67
2018-09-13T06:29:37.005Z,9.07
2018-09-13T06:32:05.603Z,9.13
2018-09-13T06:34:34.123Z,8.90
2018-09-13T06:37:02.788Z,9.10
2018-09-13T06:39:31.296Z,8.50
2018-09-13T06:41:59.847Z,8.50
2018-09-13T06:44:28.360Z,8.80
2018-09-13T06:46:56.894Z,9.17
2018-09-13T06:49:25.391Z,9.20
2018-09-13T06:51:53.956Z,9.07
2018-09-13T06:54:22.493Z,9.17
2018-09-13T06:56:51.073Z,9.63
2018-09-13T06:59:19.594Z,9.50
2018-09-13T07:01:48.408Z,10.33
2018-09-13T07:04:16.927Z,9.50
2018-09-13T07:06:45.499Z,9.73
2018-09-13T07:09:15.240Z,9.10
2018-09-13T07:11:44.668Z,9.50
2018-09-13T07:14:13.206Z,9.33
2018-09-13T07:16:41.783Z,9.13
2018-09-13T07:19:10.365Z,8.23
2018-09-13T07:21:38.920Z,8.70
2018-09-13T07:24:07.484Z,8.73
2018-09-13T07:26:36.028Z,8.97
2018-09-13T07:29:04.588Z,8.77
2018-09-13T07:31:33.168Z,8.23
2018-09-13T07:34:01.700Z,8.53
2018-09-13T07:36:30.263Z,8.47
2018-09-13T07:38:59.532Z,8.77
2018-09-13T07:41:28.102Z,8.33
2018-09-13T07:43:56.616Z,8.43
2018-09-13T07:46:25.184Z,8.27
2018-09-13T07:48:53.715Z,8.63
2018-09-13T07:51:22.283Z,8.73
2018-09-13T07:53:50.825Z,8.80
2018-09-13T07:56:19.445Z,10.80
2018-09-13T07:58:48.016Z,11.30
2018-09-13T08:01:18.246Z,10.50
2018-09-13T08:03:46.821Z,9.07
2018-09-13T08:06:15.508Z,10.90
2018-09-13T08:08:44.091Z,8.80
2018-09-13T08:11:12.624Z,9.10
2018-09-13T08:13:41.175Z,8.23
2018-09-13T08:16:09.705Z,11.23
2018-09-13T08:18:38.273Z,9.83
2018-09-13T08:21:06.828Z,7.97
2018-09-13T08:23:35.376Z,10.00
2018-09-13T08:26:03.930Z,8.17
2018-09-13T08:28:32.487Z,7.43
2018-09-13T08:31:02.052Z,7.77
2018-09-13T08:33:38.120Z,7.80
2018-09-13T08:36:06.932Z,7.27
2018-09-13T08:38:35.599Z,7.15
2018-09-13T08:41:04.966Z,7.30
2018-09-13T08:43:33.483Z,7.87
2018-09-13T08:46:02.005Z,7.60
2018-09-13T08:48:30.585Z,8.03
2018-09-13T08:50:59.088Z,7.85
2018-09-13T08:53:27.821Z,7.55
2018-09-13T08:55:56.321Z,8.35
2018-09-13T08:58:24.920Z,8.33
2018-09-13T09:00:53.443Z,9.08
2018-09-13T09:03:21.986Z,8.23
2018-09-13T09:05:50.494Z,8.13
2018-09-13T09:08:19.050Z,7.65
2018-09-13T09:10:54.628Z,7.83
2018-09-13T09:22:13.225Z,7.20
2018-09-13T09:36:44.227Z,6.87
2018-09-13T09:39:14.335Z,6.62
2018-09-13T09:41:44.214Z,6.65
2018-09-13T09:44:13.604Z,6.03
2018-09-13T09:46:42.068Z,6.45
2018-09-13T09:49:10.758Z,5.85
2018-09-13T09:51:40.241Z,6.00
2018-09-13T09:54:10.165Z,5.35
2018-09-13T09:56:38.654Z,5.28
2018-09-13T09:59:07.160Z,5.25
2018-09-13T10:01:39.962Z,5.45
2018-09-13T10:04:08.520Z,5.60
2018-09-13T10:06:36.986Z,5.15
2018-09-13T10:11:58.184Z,5.53
2018-09-13T10:14:26.669Z,5.30
2018-09-13T10:17:00.490Z,5.10
2018-09-13T10:19:34.336Z,5.47
2018-09-13T10:22:07.994Z,5.37
2018-09-13T10:24:41.824Z,5.67
2018-09-13T10:27:15.682Z,6.33
2018-09-13T10:29:49.494Z,5.50
2018-09-13T10:32:23.070Z,6.40
2018-09-13T10:34:56.753Z,6.40
2018-09-13T10:37:30.398Z,6.45
2018-09-13T10:40:04.132Z,5.85
2018-09-13T10:42:37.870Z,5.90
2018-09-13T10:45:11.676Z,6.05
2018-09-13T10:47:45.430Z,6.50
2018-09-13T10:50:19.968Z,6.90
2018-09-13T10:52:54.642Z,7.20
2018-09-13T10:55:23.268Z,7.87
2018-09-13T10:57:51.775Z,7.40
2018-09-13T11:00:20.361Z,7.67
2018-09-13T11:02:48.870Z,7.50
2018-09-13T11:05:17.476Z,6.85
2018-09-13T11:07:45.975Z,8.43
2018-09-13T11:10:14.487Z,8.63
2018-09-13T11:12:49.927Z,8.78
2018-09-13T11:15:26.578Z,8.95
2018-09-13T11:17:55.073Z,8.23
2018-09-13T11:20:23.626Z,8.50
2018-09-13T11:22:54.432Z,8.33
2018-09-13T11:25:24.183Z,8.55
2018-09-13T11:27:52.810Z,8.18
2018-09-13T11:30:21.331Z,8.88
2018-09-13T11:32:49.887Z,7.90
2018-09-13T11:35:18.415Z,8.03
2018-09-13T11:37:46.951Z,8.08
2018-09-13T11:40:16.029Z,8.20
2018-09-13T11:42:44.850Z,7.40
2018-09-13T11:45:13.466Z,7.80
2018-09-13T11:47:42.409Z,7.25
2018-09-13T11:50:10.995Z,7.83
2018-09-13T11:52:39.478Z,7.70
2018-09-13T11:55:08.027Z,7.65
2018-09-13T11:57:36.589Z,7.00
2018-09-13T12:00:05.206Z,7.00
2018-09-13T12:02:33.681Z,6.17
2018-09-13T12:05:02.461Z,6.45
2018-09-13T12:07:30.946Z,5.90
2018-09-13T12:09:59.456Z,6.10
2018-09-13T12:12:27.973Z,6.12
2018-09-13T12:14:56.502Z,6.65
2018-09-13T12:17:24.989Z,6.42
2018-09-13T12:19:53.485Z,5.97
2018-09-13T12:22:22.039Z,5.90
2018-09-13T12:24:50.530Z,5.83
2018-09-13T12:27:19.038Z,6.33
2018-09-13T12:29:47.549Z,5.80
2018-09-13T12:32:16.095Z,6.03
2018-09-13T12:34:44.613Z,6.40
2018-09-13T12:37:13.126Z,6.10
2018-09-13T12:39:41.637Z,6.17
2018-09-13T12:42:10.142Z,5.83
2018-09-13T12:44:38.634Z,6.53
2018-09-13T12:47:07.203Z,6.28
2018-09-13T12:49:35.758Z,6.03
2018-09-13T12:52:04.300Z,5.30
2018-09-13T12:54:32.825Z,4.60
2018-09-13T12:57:01.426Z,4.33
2018-09-13T12:59:35.882Z,5.00
2018-09-13T13:02:05.677Z,4.75
2018-09-13T13:04:34.197Z,4.50
2018-09-13T13:07:02.877Z,5.08
2018-09-13T13:09:31.413Z,4.80
2018-09-13T13:11:59.958Z,5.12
2018-09-13T13:14:30.201Z,5.55
2018-09-13T13:16:58.739Z,5.25
2018-09-13T13:19:30.189Z,5.25
2018-09-13T13:21:58.644Z,4.78
2018-09-13T13:24:27.209Z,4.30
2018-09-13T13:26:55.706Z,3.85
2018-09-13T13:29:24.195Z,4.50
2018-09-13T13:31:52.727Z,4.70
2018-09-13T13:34:21.221Z,4.40
2018-09-13T13:36:50.041Z,4.33
2018-09-13T13:39:18.995Z,4.60
2018-09-13T13:41:47.530Z,4.60
2018-09-13T13:44:16.002Z,4.40
2018-09-13T13:46:45.756Z,4.60
2018-09-13T13:49:14.362Z,5.12
2018-09-13T13:51:44.097Z,4.50
2018-09-13T13:54:12.629Z,5.12
2018-09-13T13:56:41.142Z,5.22
2018-09-13T13:59:09.797Z,5.10
2018-09-13T14:01:39.148Z,5.60
2018-09-13T14:04:08.739Z,5.05
2018-09-13T14:06:46.277Z,5.42
2018-09-13T14:09:24.652Z,5.03
2018-09-13T14:11:53.166Z,5.33
2018-09-13T14:14:24.007Z,5.25
2018-09-13T14:16:56.978Z,5.03
2018-09-13T14:19:25.673Z,4.33
2018-09-13T14:21:54.663Z,4.78
2018-09-13T14:24:23.336Z,5.12
2018-09-13T14:26:51.862Z,4.25
2018-09-13T14:29:20.617Z,4.40
2018-09-13T14:31:49.542Z,4.03
2018-09-13T14:34:18.017Z,4.10
2018-09-13T14:36:46.558Z,4.10
2018-09-13T14:39:15.041Z,3.90
2018-09-13T14:41:43.563Z,3.55
2018-09-13T14:44:12.045Z,3.87
2018-09-13T14:46:41.367Z,3.77
2018-09-13T14:49:09.874Z,3.45
2018-09-13T14:51:38.393Z,3.67
2018-09-13T14:54:06.902Z,3.55
2018-09-13T14:56:35.750Z,3.90
2018-09-13T14:59:04.273Z,3.70
2018-09-13T15:01:32.811Z,3.45
2018-09-13T15:04:01.347Z,3.60
2018-09-13T15:06:29.935Z,3.70
2018-09-13T15:08:58.490Z,3.20
2018-09-13T15:11:26.966Z,3.42
2018-09-13T15:13:55.497Z,3.45
2018-09-13T15:16:23.993Z,3.60
2018-09-13T15:18:52.604Z,3.58
2018-09-13T15:21:21.102Z,3.60
2018-09-13T15:23:54.533Z,3.52
2018-09-13T15:26:23.734Z,3.30
2018-09-13T15:28:52.310Z,3.40
2018-09-13T15:31:20.868Z,4.17
2018-09-13T15:33:50.349Z,4.00
2018-09-13T15:36:20.096Z,3.75
2018-09-13T15:38:48.776Z,3.52
2018-09-13T15:41:17.278Z,3.80
2018-09-13T15:43:46.126Z,4.20
2018-09-13T15:46:17.404Z,4.20
2018-09-13T15:48:45.916Z,4.17
2018-09-13T15:51:23.716Z,4.62
2018-09-13T15:53:52.337Z,4.42
2018-09-13T15:56:20.925Z,4.03
2018-09-13T15:58:50.030Z,3.80
2018-09-13T16:01:18.959Z,4.30
2018-09-13T16:06:40.650Z,3.72
2018-09-13T16:09:10.452Z,4.22
2018-09-13T16:11:41.356Z,4.83
2018-09-13T16:14:09.927Z,5.03
2018-09-13T16:16:38.544Z,5.05
2018-09-13T16:19:07.103Z,4.35
2018-09-13T16:21:35.640Z,3.72
2018-09-13T16:24:04.448Z,4.05
2018-09-13T16:26:33.135Z,4.20
2018-09-13T16:29:02.044Z,4.37
2018-09-13T16:31:30.594Z,5.15
2018-09-13T16:33:59.151Z,5.30
2018-09-13T16:36:30.032Z,5.20
2018-09-13T16:39:06.404Z,5.20
2018-09-13T16:41:41.589Z,5.47
2018-09-13T16:44:14.345Z,5.58
2018-09-13T16:46:48.510Z,5.50
2018-09-13T16:49:17.325Z,5.67
2018-09-13T16:54:39.545Z,5.85
2018-09-13T17:00:00.672Z,6.70
2018-09-13T17:02:29.166Z,5.60
2018-09-13T17:04:58.126Z,4.90
2018-09-13T17:07:27.075Z,5.03
2018-09-13T17:09:55.648Z,5.00
2018-09-13T17:12:24.222Z,5.17
2018-09-13T17:14:52.864Z,5.67
2018-09-13T17:17:21.422Z,5.77
2018-09-13T17:19:49.978Z,5.57
2018-09-13T17:28:03.742Z,5.43
2018-09-13T17:30:32.285Z,4.97
2018-09-13T17:33:00.796Z,5.40
2018-09-13T17:35:29.935Z,5.47
2018-09-13T17:37:58.518Z,5.23
2018-09-13T17:40:27.186Z,5.03
2018-09-13T17:42:55.702Z,5.17
2018-09-13T17:45:24.188Z,5.43
